createdAt,value
2018-04-13T00:00:36.768Z,74.12
2018-04-13T00:02:28.530Z,73.35
2018-04-13T00:03:28.459Z,73.83
2018-04-13T00:05:20.424Z,71.63
2018-04-13T00:06:20.347Z,72.78
2018-04-13T00:08:12.148Z,72.49
2018-04-13T00:09:12.062Z,72.30
2018-04-13T00:11:03.820Z,72.49
2018-04-13T00:12:03.764Z,71.82
2018-04-13T00:13:55.522Z,72.49
2018-04-13T00:14:55.454Z,72.49
2018-04-13T00:16:47.223Z,72.88
2018-04-13T00:17:47.160Z,74.12
2018-04-13T00:19:38.924Z,73.16
2018-04-13T00:20:38.853Z,72.78
2018-04-13T00:22:30.650Z,72.68
2018-04-13T00:23:30.565Z,73.74
2018-04-13T00:25:22.332Z,73.07
2018-04-13T00:26:22.264Z,73.26
2018-04-13T00:28:14.065Z,73.65
2018-04-13T00:29:13.990Z,72.20
2018-04-13T00:31:05.748Z,72.49
2018-04-13T00:32:05.694Z,71.69
2018-04-13T00:33:57.451Z,72.49
2018-04-13T00:34:57.383Z,71.63
2018-04-13T00:36:49.147Z,74.89
2018-04-13T00:37:49.090Z,72.30
2018-04-13T00:39:40.851Z,72.68
2018-04-13T00:40:40.779Z,71.69
2018-04-13T00:42:32.574Z,72.17
2018-04-13T00:43:32.497Z,71.98
2018-04-13T00:45:24.270Z,72.45
2018-04-13T00:46:24.192Z,71.21
2018-04-13T00:48:16.051Z,71.34
2018-04-13T00:49:15.951Z,72.68
2018-04-13T00:51:07.708Z,71.50
2018-04-13T00:52:07.650Z,71.02
2018-04-13T00:53:59.418Z,71.11
2018-04-13T00:54:59.342Z,71.69
2018-04-13T00:56:51.099Z,71.69
2018-04-13T00:57:51.045Z,71.78
2018-04-13T00:59:42.834Z,71.11
2018-04-13T01:00:42.750Z,71.02
2018-04-13T01:02:34.529Z,70.92
2018-04-13T01:03:34.460Z,70.25
2018-04-13T01:05:26.236Z,70.15
2018-04-13T01:06:26.166Z,69.58
2018-04-13T01:08:18.055Z,70.25
2018-04-13T01:09:17.879Z,69.77
2018-04-13T01:11:09.646Z,71.59
2018-04-13T01:12:09.587Z,70.54
2018-04-13T01:14:01.395Z,70.83
2018-04-13T01:15:01.322Z,69.87
2018-04-13T01:16:53.084Z,69.68
2018-04-13T01:17:53.023Z,69.96
2018-04-13T01:19:44.793Z,70.73
2018-04-13T01:20:44.725Z,69.96
2018-04-13T01:22:36.484Z,69.96
2018-04-13T01:23:36.483Z,69.96
2018-04-13T01:25:28.213Z,70.73
2018-04-13T01:26:28.135Z,71.11
2018-04-13T01:28:19.892Z,70.73
2018-04-13T01:29:19.830Z,72.55
2018-04-13T01:31:11.605Z,70.92
2018-04-13T01:32:11.537Z,70.73
2018-04-13T01:34:03.293Z,69.96
2018-04-13T01:35:03.223Z,70.25
2018-04-13T01:36:55.004Z,69.96
2018-04-13T01:37:54.928Z,71.02
2018-04-13T01:39:46.729Z,70.44
2018-04-13T01:40:46.653Z,70.54
2018-04-13T01:42:38.415Z,71.40
2018-04-13T01:43:38.353Z,70.35
2018-04-13T01:45:30.129Z,71.21
2018-04-13T01:46:30.049Z,70.44
2018-04-13T01:48:21.809Z,70.44
2018-04-13T01:49:21.752Z,70.54
2018-04-13T01:51:13.561Z,69.58
2018-04-13T01:52:13.498Z,70.44
2018-04-13T01:54:05.273Z,69.68
2018-04-13T01:55:05.212Z,69.58
2018-04-13T01:56:56.971Z,70.44
2018-04-13T01:57:56.901Z,70.15
2018-04-13T01:59:48.700Z,69.96
2018-04-13T02:00:48.590Z,71.11
2018-04-13T02:02:40.348Z,69.39
2018-04-13T02:03:40.285Z,69.77
2018-04-13T02:05:32.055Z,70.35
2018-04-13T02:06:31.991Z,70.44
2018-04-13T02:08:23.781Z,70.35
2018-04-13T02:09:23.717Z,69.68
2018-04-13T02:11:15.550Z,69.77
2018-04-13T02:12:15.481Z,70.83
2018-04-13T02:14:07.236Z,70.54
2018-04-13T02:15:07.181Z,69.77
2018-04-13T02:16:58.945Z,69.87
2018-04-13T02:17:58.870Z,69.58
2018-04-13T02:19:50.629Z,69.39
2018-04-13T02:20:50.567Z,68.72
2018-04-13T02:22:42.351Z,69.58
2018-04-13T02:23:42.271Z,67.85
2018-04-13T02:25:34.053Z,68.62
2018-04-13T02:26:33.975Z,68.91
2018-04-13T02:28:25.741Z,70.25
2018-04-13T02:29:25.702Z,68.81
2018-04-13T02:31:17.448Z,69.77
2018-04-13T02:32:17.374Z,68.33
2018-04-13T02:34:09.142Z,70.15
2018-04-13T02:35:09.086Z,69.07
2018-04-13T02:37:00.873Z,70.54
2018-04-13T02:38:00.803Z,71.50
2018-04-13T02:39:52.557Z,71.11
2018-04-13T02:40:52.499Z,69.68
2018-04-13T02:42:44.324Z,69.87
2018-04-13T02:43:44.254Z,69.96
2018-04-13T02:45:36.017Z,71.78
2018-04-13T02:46:35.953Z,71.11
2018-04-13T02:48:27.718Z,69.29
2018-04-13T02:49:27.647Z,68.81
2018-04-13T02:51:19.410Z,70.35
2018-04-13T02:52:19.356Z,69.48
2018-04-13T02:54:11.097Z,69.68
2018-04-13T02:55:11.034Z,68.72
2018-04-13T02:57:02.811Z,68.33
2018-04-13T02:58:02.740Z,68.40
2018-04-13T02:59:54.492Z,69.20
2018-04-13T03:00:54.429Z,68.49
2018-04-13T03:02:46.219Z,68.91
2018-04-13T03:03:46.135Z,67.85
2018-04-13T03:05:37.894Z,68.49
2018-04-13T03:06:37.833Z,67.57
2018-04-13T03:08:29.615Z,67.05
2018-04-13T03:09:29.545Z,67.15
2018-04-13T03:11:21.306Z,68.01
2018-04-13T03:12:21.237Z,67.63
2018-04-13T03:14:13.014Z,67.95
2018-04-13T03:15:12.941Z,66.48
2018-04-13T03:17:04.709Z,68.24
2018-04-13T03:18:04.630Z,68.11
2018-04-13T03:19:56.394Z,67.57
2018-04-13T03:20:56.336Z,67.09
2018-04-13T03:22:48.103Z,65.81
2018-04-13T03:23:48.028Z,65.81
2018-04-13T03:25:39.788Z,65.23
2018-04-13T03:26:39.729Z,65.52
2018-04-13T03:28:31.497Z,65.62
2018-04-13T03:29:31.422Z,65.52
2018-04-13T03:31:23.177Z,65.14
2018-04-13T03:32:23.112Z,65.81
2018-04-13T03:34:14.895Z,66.42
2018-04-13T03:35:14.820Z,65.52
2018-04-13T03:37:06.627Z,65.42
2018-04-13T03:38:06.548Z,64.18
2018-04-13T03:39:58.351Z,65.42
2018-04-13T03:40:58.277Z,66.67
2018-04-13T03:42:50.056Z,66.00
2018-04-13T03:43:49.983Z,65.84
2018-04-13T03:45:41.749Z,66.67
2018-04-13T03:46:41.689Z,67.34
2018-04-13T03:48:33.459Z,68.14
2018-04-13T03:49:33.406Z,68.43
2018-04-13T03:51:25.145Z,70.92
2018-04-13T03:52:25.076Z,71.02
2018-04-13T03:54:16.877Z,70.73
2018-04-13T03:55:16.850Z,69.29
2018-04-13T03:57:08.580Z,71.21
2018-04-13T03:58:08.503Z,70.54
2018-04-13T04:00:00.263Z,71.40
2018-04-13T04:01:00.203Z,72.84
2018-04-13T04:02:51.971Z,72.84
2018-04-13T04:03:51.901Z,72.74
2018-04-13T04:05:43.672Z,72.74
2018-04-13T04:06:43.597Z,74.57
2018-04-13T04:08:35.377Z,73.03
2018-04-13T04:09:35.323Z,71.98
2018-04-13T04:11:27.097Z,70.83
2018-04-13T04:12:27.034Z,71.02
2018-04-13T04:14:18.931Z,73.03
2018-04-13T04:15:18.858Z,71.11
2018-04-13T04:17:10.628Z,72.36
2018-04-13T04:18:10.553Z,72.74
2018-04-13T04:20:02.337Z,72.17
2018-04-13T04:21:02.264Z,71.69
2018-04-13T04:22:54.041Z,69.96
2018-04-13T04:23:53.973Z,71.50
2018-04-13T04:25:45.748Z,69.96
2018-04-13T04:26:45.676Z,69.87
2018-04-13T04:28:37.449Z,72.07
2018-04-13T04:29:37.386Z,70.83
2018-04-13T04:31:30.191Z,69.68
2018-04-13T04:32:30.111Z,70.06
2018-04-13T04:34:21.883Z,70.06
2018-04-13T04:35:21.808Z,70.92
2018-04-13T04:37:13.575Z,71.02
2018-04-13T04:38:13.507Z,72.07
2018-04-13T04:40:05.393Z,73.74
2018-04-13T04:41:05.315Z,72.55
2018-04-13T04:42:57.313Z,74.12
2018-04-13T04:43:57.250Z,72.97
2018-04-13T04:45:49.035Z,73.35
2018-04-13T04:46:48.964Z,74.02
2018-04-13T04:48:40.782Z,72.30
2018-04-13T04:49:40.751Z,74.69
2018-04-13T04:51:32.505Z,75.65
2018-04-13T04:52:32.434Z,74.79
2018-04-13T04:54:24.222Z,74.89
2018-04-13T04:55:24.151Z,75.08
2018-04-13T04:57:16.239Z,75.75
2018-04-13T04:58:16.033Z,76.42
2018-04-13T05:00:08.783Z,74.89
2018-04-13T05:01:08.703Z,75.27
2018-04-13T05:03:00.540Z,75.85
2018-04-13T05:04:00.485Z,75.27
2018-04-13T05:05:52.315Z,74.51
2018-04-13T05:06:52.265Z,75.95
2018-04-13T05:08:44.065Z,75.75
2018-04-13T05:09:43.998Z,75.08
2018-04-13T05:11:35.791Z,74.69
2018-04-13T05:12:35.714Z,74.51
2018-04-13T05:14:27.600Z,74.98
2018-04-13T05:15:27.487Z,74.79
2018-04-13T05:17:19.263Z,75.08
2018-04-13T05:18:19.193Z,75.08
2018-04-13T05:20:11.111Z,72.78
2018-04-13T05:21:11.035Z,72.20
2018-04-13T05:23:02.873Z,72.88
2018-04-13T05:24:02.813Z,72.01
2018-04-13T05:25:54.598Z,70.96
2018-04-13T05:26:54.513Z,69.62
2018-04-13T05:28:46.378Z,70.38
2018-04-13T05:29:46.315Z,69.81
2018-04-13T05:31:38.125Z,70.19
2018-04-13T05:32:38.056Z,69.90
2018-04-13T05:34:29.872Z,68.37
2018-04-13T05:35:29.757Z,68.37
2018-04-13T05:37:21.541Z,69.13
2018-04-13T05:38:21.491Z,69.42
2018-04-13T05:40:13.269Z,70.29
2018-04-13T05:41:13.191Z,69.62
2018-04-13T05:43:04.993Z,70.96
2018-04-13T05:44:04.915Z,70.48
2018-04-13T05:45:56.757Z,70.96
2018-04-13T05:46:56.666Z,70.29
2018-04-13T05:48:48.511Z,69.04
2018-04-13T05:49:48.437Z,69.90
2018-04-13T05:51:40.352Z,70.48
2018-04-13T05:52:40.277Z,70.86
2018-04-13T05:54:32.047Z,69.23
2018-04-13T05:55:31.984Z,70.00
2018-04-13T05:57:23.832Z,70.38
2018-04-13T05:58:23.710Z,69.84
2018-04-13T06:00:15.573Z,71.63
2018-04-13T06:01:15.437Z,71.86
2018-04-13T06:03:07.227Z,73.58
2018-04-13T06:04:07.181Z,73.58
2018-04-13T06:05:58.943Z,74.64
2018-04-13T06:06:58.884Z,74.83
2018-04-13T06:08:50.612Z,74.83
2018-04-13T06:09:50.549Z,76.46
2018-04-13T06:11:42.388Z,77.04
2018-04-13T06:12:42.312Z,75.70
2018-04-13T06:14:34.080Z,77.04
2018-04-13T06:15:34.005Z,78.38
2018-04-13T06:17:25.822Z,78.38
2018-04-13T06:18:25.766Z,79.82
2018-04-13T06:20:17.503Z,80.01
2018-04-13T06:21:17.446Z,78.67
2018-04-13T06:23:09.209Z,78.67
2018-04-13T06:24:09.149Z,78.28
2018-04-13T06:26:01.164Z,77.51
2018-04-13T06:27:00.980Z,76.94
2018-04-13T06:28:52.679Z,77.51
2018-04-13T06:29:52.616Z,77.61
2018-04-13T06:31:44.425Z,75.98
2018-04-13T06:32:44.390Z,75.31
2018-04-13T06:34:36.236Z,75.21
2018-04-13T06:35:36.202Z,74.73
2018-04-13T06:37:27.989Z,73.77
2018-04-13T06:38:27.895Z,73.58
2018-04-13T06:40:19.670Z,72.53
2018-04-13T06:41:19.626Z,67.35
2018-04-13T06:43:11.497Z,40.08
2018-04-13T06:44:11.407Z,29.42
2018-04-13T06:46:03.210Z,17.72
2018-04-13T06:47:03.123Z,15.61
2018-04-13T06:48:54.979Z,11.11
2018-04-13T06:49:54.855Z,5.84
2018-04-13T06:51:46.685Z,6.41
2018-04-13T06:52:46.680Z,14.17
2018-04-13T06:54:38.303Z,10.35
2018-04-13T06:55:38.245Z,14.65
2018-04-13T06:57:30.049Z,25.96
2018-04-13T06:58:29.950Z,23.57
2018-04-13T07:00:21.760Z,22.03
2018-04-13T07:01:21.674Z,23.94
2018-04-13T07:03:13.481Z,23.08
2018-04-13T07:04:13.397Z,22.03
2018-04-13T07:06:05.246Z,22.13
2018-04-13T07:07:05.174Z,7.37
2018-04-13T07:08:57.115Z,9.38
2018-04-13T07:09:57.022Z,16.38
2018-04-13T07:11:48.805Z,8.71
2018-04-13T07:12:48.705Z,10.82
2018-04-13T07:14:40.508Z,8.23
2018-04-13T07:15:40.407Z,6.23
2018-04-13T07:17:32.362Z,6.89
2018-04-13T07:18:32.273Z,3.45
2018-04-13T07:20:24.088Z,4.30
2018-04-13T07:21:24.023Z,3.64
2018-04-13T07:23:15.803Z,4.02
2018-04-13T07:24:15.721Z,7.76
2018-04-13T07:26:07.507Z,8.04
2018-04-13T07:27:07.430Z,10.35
2018-04-13T07:28:59.204Z,12.93
2018-04-13T07:29:59.129Z,13.12
2018-04-13T07:31:51.173Z,11.68
2018-04-13T07:32:51.112Z,15.71
2018-04-13T07:34:42.890Z,16.28
2018-04-13T07:35:42.843Z,18.88
2018-04-13T07:37:35.612Z,11.49
2018-04-13T07:38:35.538Z,13.31
2018-04-13T07:40:27.349Z,12.26
2018-04-13T07:41:27.241Z,14.27
2018-04-13T07:43:20.062Z,11.97
2018-04-13T07:44:19.968Z,8.52
2018-04-13T07:46:12.775Z,11.88
2018-04-13T07:47:12.700Z,10.25
2018-04-13T07:49:04.484Z,13.02
2018-04-13T07:50:04.397Z,11.11
2018-04-13T07:51:56.182Z,10.06
2018-04-13T07:52:56.125Z,6.70
2018-04-13T07:54:47.956Z,3.45
2018-04-13T07:55:47.836Z,0.00
2018-04-13T07:57:39.646Z,0.00
2018-04-13T07:58:39.574Z,0.00
2018-04-13T08:00:32.381Z,0.00
2018-04-13T08:01:32.292Z,0.00
2018-04-13T08:03:25.051Z,0.00
2018-04-13T08:04:24.968Z,0.00
2018-04-13T08:06:17.083Z,0.00
2018-04-13T08:07:16.774Z,0.00
2018-04-13T08:09:09.535Z,0.00
2018-04-13T08:10:09.451Z,0.00
2018-04-13T08:12:01.393Z,0.00
2018-04-13T08:13:01.287Z,0.00
2018-04-13T08:14:53.213Z,0.00
2018-04-13T08:15:53.123Z,0.00
2018-04-13T08:17:44.918Z,0.00
2018-04-13T08:18:44.852Z,0.00
2018-04-13T08:20:36.701Z,0.00
2018-04-13T08:21:36.621Z,0.00
2018-04-13T08:23:28.428Z,0.00
2018-04-13T08:24:28.357Z,0.00
2018-04-13T08:26:20.307Z,0.00
2018-04-13T08:27:20.230Z,0.00
2018-04-13T08:29:12.017Z,0.00
2018-04-13T08:30:11.921Z,0.00
2018-04-13T08:32:03.869Z,0.00
2018-04-13T08:33:03.765Z,0.00
2018-04-13T08:34:55.665Z,0.00
2018-04-13T08:35:55.541Z,0.00
2018-04-13T08:37:47.420Z,0.00
2018-04-13T08:38:47.317Z,0.00
2018-04-13T08:40:39.199Z,0.00
2018-04-13T08:41:39.128Z,0.00
2018-04-13T08:43:31.117Z,0.00
2018-04-13T08:44:30.878Z,0.00
2018-04-13T08:46:22.809Z,0.00
2018-04-13T08:47:22.705Z,0.00
2018-04-13T08:49:15.640Z,0.00
2018-04-13T08:50:15.463Z,0.00
2018-04-13T08:52:07.321Z,0.00
2018-04-13T08:53:07.269Z,0.00
2018-04-13T08:55:00.124Z,0.00
2018-04-13T08:55:59.962Z,0.00
2018-04-13T08:57:52.734Z,0.00
2018-04-13T08:58:52.679Z,0.00
2018-04-13T09:00:44.557Z,0.00
2018-04-13T09:01:44.490Z,0.00
2018-04-13T09:03:36.342Z,0.00
2018-04-13T09:04:36.293Z,0.00
2018-04-13T09:06:28.147Z,0.00
2018-04-13T09:07:28.070Z,0.00
2018-04-13T09:09:19.870Z,0.00
2018-04-13T09:10:19.769Z,0.00
2018-04-13T09:12:11.576Z,0.00
2018-04-13T09:13:11.515Z,0.00
2018-04-13T09:15:03.316Z,0.00
2018-04-13T09:16:03.268Z,0.00
2018-04-13T09:17:55.048Z,0.00
2018-04-13T09:18:55.017Z,0.00
2018-04-13T09:20:46.920Z,0.00
2018-04-13T09:21:46.666Z,0.00
2018-04-13T09:23:38.506Z,0.00
2018-04-13T09:24:38.435Z,0.00
2018-04-13T09:26:30.210Z,0.00
2018-04-13T09:27:30.132Z,0.00
2018-04-13T09:29:22.094Z,2.78
2018-04-13T09:30:22.034Z,0.00
2018-04-13T09:32:14.025Z,7.77
2018-04-13T09:33:13.941Z,3.16
2018-04-13T09:35:05.803Z,0.00
2018-04-13T09:36:05.725Z,2.59
2018-04-13T09:37:57.579Z,1.15
2018-04-13T09:38:57.538Z,5.27
2018-04-13T09:40:49.481Z,1.82
2018-04-13T09:41:49.386Z,0.00
2018-04-13T09:43:42.163Z,1.34
2018-04-13T09:44:42.093Z,0.00
2018-04-13T09:46:34.092Z,0.00
2018-04-13T09:47:34.012Z,0.00
2018-04-13T09:49:26.881Z,1.25
2018-04-13T09:50:26.788Z,0.00
2018-04-13T09:52:18.662Z,1.43
2018-04-13T09:53:18.603Z,5.27
2018-04-13T09:55:11.381Z,9.01
2018-04-13T09:56:11.312Z,5.27
2018-04-13T09:58:03.182Z,13.62
2018-04-13T09:59:03.114Z,2.39
2018-04-13T10:00:54.921Z,16.88
2018-04-13T10:01:54.819Z,14.86
2018-04-13T10:03:46.738Z,4.22
2018-04-13T10:04:46.667Z,10.74
2018-04-13T10:06:38.446Z,10.55
2018-04-13T10:07:38.379Z,8.25
2018-04-13T10:09:30.382Z,10.17
2018-04-13T10:10:30.207Z,11.51
2018-04-13T10:12:22.000Z,9.40
2018-04-13T10:13:21.925Z,11.13
2018-04-13T10:15:13.786Z,13.91
2018-04-13T10:16:13.718Z,14.20
2018-04-13T10:18:05.674Z,11.80
2018-04-13T10:19:05.602Z,7.29
2018-04-13T10:20:57.518Z,5.94
2018-04-13T10:21:57.352Z,4.99
2018-04-13T10:23:50.170Z,5.76
2018-04-13T10:24:50.106Z,3.26
2018-04-13T10:26:42.926Z,9.78
2018-04-13T10:27:42.820Z,2.87
2018-04-13T10:29:34.604Z,1.63
2018-04-13T10:30:34.522Z,1.05
2018-04-13T10:32:26.306Z,0.00
2018-04-13T10:33:26.240Z,0.57
2018-04-13T10:35:18.045Z,0.96
2018-04-13T10:36:17.937Z,3.45
2018-04-13T10:38:10.760Z,7.57
2018-04-13T10:39:10.692Z,8.63
2018-04-13T10:41:02.721Z,8.34
2018-04-13T10:42:02.685Z,12.08
2018-04-13T10:43:54.429Z,7.57
2018-04-13T10:44:54.388Z,16.02
2018-04-13T10:46:46.153Z,14.00
2018-04-13T10:47:46.081Z,10.46
2018-04-13T10:49:38.854Z,10.74
2018-04-13T10:50:38.797Z,9.21
2018-04-13T10:52:30.691Z,10.17
2018-04-13T10:53:30.610Z,11.60
2018-04-13T10:55:22.493Z,17.84
2018-04-13T10:56:22.450Z,15.16
2018-04-13T10:58:15.205Z,12.57
2018-04-13T10:59:15.321Z,11.32
2018-04-13T11:01:06.912Z,15.64
2018-04-13T11:02:06.835Z,11.90
2018-04-13T11:03:58.674Z,18.61
2018-04-13T11:04:58.603Z,11.80
2018-04-13T11:06:50.451Z,9.50
2018-04-13T11:07:50.375Z,6.33
2018-04-13T11:09:42.164Z,0.67
2018-04-13T11:10:42.117Z,0.00
2018-04-13T11:12:34.930Z,0.00
2018-04-13T11:13:34.823Z,2.87
2018-04-13T11:15:26.595Z,0.00
2018-04-13T11:16:26.527Z,2.11
2018-04-13T11:18:18.405Z,2.30
2018-04-13T11:19:18.323Z,2.11
2018-04-13T11:21:10.176Z,0.00
2018-04-13T11:22:10.109Z,0.00
2018-04-13T11:24:02.913Z,4.03
2018-04-13T11:25:02.838Z,4.99
2018-04-13T11:26:54.781Z,11.03
2018-04-13T11:27:54.694Z,13.63
2018-04-13T11:29:46.649Z,15.16
2018-04-13T11:30:46.567Z,11.61
2018-04-13T11:32:38.579Z,22.65
2018-04-13T11:33:38.474Z,21.50
2018-04-13T11:35:30.428Z,21.32
2018-04-13T11:36:30.365Z,18.91
2018-04-13T11:38:22.190Z,29.28
2018-04-13T11:39:22.080Z,40.62
2018-04-13T11:41:13.879Z,35.91
2018-04-13T11:42:13.825Z,30.15
2018-04-13T11:44:05.618Z,32.38
2018-04-13T11:45:05.538Z,44.29
2018-04-13T11:46:58.351Z,53.61
2018-04-13T11:47:58.280Z,43.91
2018-04-13T11:49:50.205Z,38.14
2018-04-13T11:50:50.117Z,41.89
2018-04-13T11:52:41.988Z,41.60
2018-04-13T11:53:41.889Z,38.45
2018-04-13T11:55:33.733Z,44.79
2018-04-13T11:56:33.631Z,42.30
2018-04-13T11:58:26.495Z,42.87
2018-04-13T11:59:26.384Z,51.33
2018-04-13T12:01:18.205Z,56.14
2018-04-13T12:02:18.138Z,61.33
2018-04-13T12:04:10.957Z,60.88
2018-04-13T12:05:10.880Z,70.50
2018-04-13T12:07:02.851Z,58.37
2018-04-13T12:08:02.768Z,65.88
2018-04-13T12:09:55.604Z,64.53
2018-04-13T12:10:55.542Z,62.10
2018-04-13T12:12:48.337Z,58.57
2018-04-13T12:13:48.285Z,56.93
2018-04-13T12:15:41.066Z,72.13
2018-04-13T12:16:41.010Z,70.50
2018-04-13T12:18:32.771Z,63.83
2018-04-13T12:19:32.703Z,67.96
2018-04-13T12:21:25.485Z,64.50
2018-04-13T12:22:25.447Z,68.83
2018-04-13T12:24:17.450Z,67.22
2018-04-13T12:25:17.343Z,68.86
2018-04-13T12:27:09.173Z,63.73
2018-04-13T12:28:09.155Z,69.60
2018-04-13T12:30:00.975Z,64.31
2018-04-13T12:31:00.904Z,74.60
2018-04-13T12:32:53.764Z,67.29
2018-04-13T12:33:53.640Z,61.04
2018-04-13T12:35:45.448Z,73.63
2018-04-13T12:36:45.389Z,72.61
2018-04-13T12:38:37.388Z,70.75
2018-04-13T12:39:37.321Z,70.65
2018-04-13T12:41:29.205Z,71.81
2018-04-13T12:42:29.136Z,70.37
2018-04-13T12:44:21.092Z,70.21
2018-04-13T12:45:21.035Z,71.52
2018-04-13T12:47:13.031Z,72.67
2018-04-13T12:48:12.908Z,67.38
2018-04-13T12:50:04.748Z,65.94
2018-04-13T12:51:04.614Z,75.17
2018-04-13T12:52:56.469Z,77.38
2018-04-13T12:53:56.395Z,71.33
2018-04-13T12:55:48.212Z,79.79
2018-04-13T12:56:48.123Z,71.71
2018-04-13T12:58:39.846Z,68.06
2018-04-13T12:59:39.769Z,72.03
2018-04-13T13:01:31.561Z,73.67
2018-04-13T13:02:31.504Z,78.67
2018-04-13T13:04:23.309Z,74.92
2018-04-13T13:05:23.230Z,77.90
2018-04-13T13:07:15.019Z,81.17
2018-04-13T13:08:14.956Z,78.00
2018-04-13T13:10:06.732Z,83.81
2018-04-13T13:11:06.662Z,85.93
2018-04-13T13:12:58.414Z,82.46
2018-04-13T13:13:58.351Z,87.66
2018-04-13T13:15:50.145Z,84.77
2018-04-13T13:16:50.096Z,87.08
2018-04-13T13:18:41.874Z,93.53
2018-04-13T13:19:41.828Z,89.58
2018-04-13T13:21:33.583Z,85.16
2018-04-13T13:22:33.560Z,84.87
2018-04-13T13:24:25.349Z,86.99
2018-04-13T13:25:25.229Z,92.47
2018-04-13T13:27:17.019Z,93.62
2018-04-13T13:28:16.963Z,87.12
2018-04-13T13:30:08.805Z,89.20
2018-04-13T13:31:08.736Z,90.45
2018-04-13T13:33:00.596Z,87.76
2018-04-13T13:34:00.514Z,93.43
2018-04-13T13:35:52.323Z,91.22
2018-04-13T13:36:52.241Z,91.31
2018-04-13T13:38:44.039Z,93.24
2018-04-13T13:39:43.966Z,98.14
2018-04-13T13:41:35.778Z,89.68
2018-04-13T13:42:35.702Z,95.26
2018-04-13T13:44:27.509Z,97.57
2018-04-13T13:45:27.433Z,99.11
2018-04-13T13:47:19.221Z,95.02
2018-04-13T13:48:19.152Z,99.99
2018-04-13T13:50:10.927Z,98.39
2018-04-13T13:51:10.855Z,98.19
2018-04-13T13:53:02.724Z,99.99
2018-04-13T13:54:02.635Z,99.26
2018-04-13T13:55:54.422Z,99.99
2018-04-13T13:56:54.362Z,99.99
2018-04-13T13:58:46.115Z,97.62
2018-04-13T13:59:46.065Z,99.99
2018-04-13T14:01:37.888Z,99.99
2018-04-13T14:02:37.786Z,99.99
2018-04-13T14:04:29.572Z,99.99
2018-04-13T14:05:29.511Z,99.99
2018-04-13T14:07:21.399Z,99.69
2018-04-13T14:08:21.228Z,99.99
2018-04-13T14:10:13.105Z,99.99
2018-04-13T14:11:12.955Z,99.99
2018-04-13T14:13:04.736Z,99.59
2018-04-13T14:14:04.665Z,99.99
2018-04-13T14:15:56.503Z,99.99
2018-04-13T14:16:56.431Z,99.99
2018-04-13T14:18:48.206Z,99.99
2018-04-13T14:19:48.165Z,99.99
2018-04-13T14:21:39.935Z,99.99
2018-04-13T14:22:39.943Z,99.99
2018-04-13T14:24:31.664Z,99.99
2018-04-13T14:25:31.616Z,99.99
2018-04-13T14:27:23.447Z,99.99
2018-04-13T14:28:23.353Z,99.99
2018-04-13T14:30:15.160Z,99.99
2018-04-13T14:31:15.070Z,99.99
2018-04-13T14:33:06.946Z,99.99
2018-04-13T14:34:06.797Z,99.99
2018-04-13T14:35:58.599Z,99.99
2018-04-13T14:36:58.590Z,99.99
2018-04-13T14:38:50.279Z,99.99
2018-04-13T14:39:50.222Z,99.99
2018-04-13T14:41:42.045Z,99.99
2018-04-13T14:42:41.953Z,99.99
2018-04-13T14:44:33.739Z,99.99
2018-04-13T14:45:33.662Z,99.99
2018-04-13T14:47:25.607Z,99.99
2018-04-13T14:48:25.399Z,99.99
2018-04-13T14:50:17.172Z,99.99
2018-04-13T14:51:17.108Z,99.99
2018-04-13T14:53:08.912Z,99.99
2018-04-13T14:54:08.839Z,99.99
2018-04-13T14:56:00.795Z,99.99
2018-04-13T14:57:00.588Z,99.99
2018-04-13T14:58:52.420Z,99.99
2018-04-13T14:59:52.337Z,99.99
2018-04-13T15:01:44.212Z,99.99
2018-04-13T15:02:44.202Z,99.99
2018-04-13T15:04:36.127Z,99.99
2018-04-13T15:05:35.898Z,99.99
2018-04-13T15:07:27.689Z,99.99
2018-04-13T15:08:27.723Z,99.99
2018-04-13T15:10:19.618Z,99.99
2018-04-13T15:11:19.500Z,99.99
2018-04-13T15:13:11.505Z,99.99
2018-04-13T15:14:11.545Z,99.99
2018-04-13T15:16:03.777Z,99.99
2018-04-13T15:17:03.522Z,99.99
2018-04-13T15:18:55.433Z,99.99
2018-04-13T15:19:55.397Z,99.99
2018-04-13T15:21:47.240Z,99.99
2018-04-13T15:22:47.185Z,99.99
2018-04-13T15:24:38.937Z,99.99
2018-04-13T15:25:38.805Z,99.99
2018-04-13T15:27:30.776Z,99.99
2018-04-13T15:28:30.705Z,99.99
2018-04-13T15:30:22.686Z,99.99
2018-04-13T15:31:22.598Z,99.99
2018-04-13T15:33:14.583Z,99.99
2018-04-13T15:34:14.425Z,99.99
2018-04-13T15:36:06.453Z,99.99
2018-04-13T15:37:06.385Z,99.99
2018-04-13T15:38:58.373Z,99.99
2018-04-13T15:39:58.418Z,99.99
2018-04-13T15:41:50.343Z,99.99
2018-04-13T15:42:50.261Z,99.99
2018-04-13T15:44:42.194Z,99.99
2018-04-13T15:45:42.093Z,99.99
2018-04-13T15:47:34.049Z,99.99
2018-04-13T15:48:33.953Z,99.99
2018-04-13T15:50:26.172Z,99.99
2018-04-13T15:51:25.937Z,99.99
2018-04-13T15:53:17.768Z,99.99
2018-04-13T15:54:17.633Z,99.99
2018-04-13T15:56:09.614Z,99.99
2018-04-13T15:57:09.354Z,99.99
2018-04-13T15:59:01.567Z,99.99
2018-04-13T16:00:01.432Z,99.99
2018-04-13T16:01:53.278Z,99.99
2018-04-13T16:02:53.250Z,99.99
2018-04-13T16:04:45.119Z,99.99
2018-04-13T16:05:44.867Z,99.99
2018-04-13T16:07:37.008Z,99.99
2018-04-13T16:08:36.898Z,99.99
2018-04-13T16:10:28.680Z,99.99
2018-04-13T16:11:28.621Z,99.99
2018-04-13T16:13:20.769Z,99.99
2018-04-13T16:14:20.609Z,99.99
2018-04-13T16:16:12.397Z,99.99
2018-04-13T16:17:12.252Z,99.99
2018-04-13T16:19:04.211Z,99.99
2018-04-13T16:20:04.142Z,99.99
2018-04-13T16:21:56.066Z,99.99
2018-04-13T16:22:55.933Z,98.68
2018-04-13T16:24:47.781Z,95.21
2018-04-13T16:25:47.761Z,95.36
2018-04-13T16:27:39.580Z,94.30
2018-04-13T16:28:39.559Z,92.96
2018-04-13T16:30:31.429Z,94.21
2018-04-13T16:31:31.326Z,93.53
2018-04-13T16:33:23.331Z,92.76
2018-04-13T16:34:23.191Z,99.98
2018-04-13T16:36:15.066Z,92.67
2018-04-13T16:37:14.933Z,88.15
2018-04-13T16:39:06.984Z,94.01
2018-04-13T16:40:06.718Z,90.94
2018-04-13T16:41:58.539Z,98.39
2018-04-13T16:42:58.500Z,96.75
2018-04-13T16:44:50.443Z,94.83
2018-04-13T16:45:50.281Z,92.14
2018-04-13T16:47:42.198Z,93.68
2018-04-13T16:48:42.102Z,93.58
2018-04-13T16:50:33.958Z,96.47
2018-04-13T16:51:33.863Z,90.60
2018-04-13T16:53:25.887Z,99.99
2018-04-13T16:54:25.869Z,99.99
2018-04-13T16:56:17.587Z,99.99
2018-04-13T16:57:17.509Z,97.52
2018-04-13T16:59:09.614Z,96.94
2018-04-13T17:00:09.339Z,99.99
2018-04-13T17:02:01.294Z,97.24
2018-04-13T17:03:01.232Z,94.45
2018-04-13T17:04:53.144Z,98.10
2018-04-13T17:05:53.113Z,97.47
2018-04-13T17:07:45.171Z,97.71
2018-04-13T17:08:45.276Z,95.70
2018-04-13T17:10:37.269Z,96.56
2018-04-13T17:11:37.218Z,99.99
2018-04-13T17:13:29.216Z,96.61
2018-04-13T17:14:29.021Z,97.09
2018-04-13T17:16:21.636Z,98.91
2018-04-13T17:17:20.947Z,99.99
2018-04-13T17:19:12.817Z,97.47
2018-04-13T17:20:12.808Z,99.99
2018-04-13T17:22:04.812Z,98.05
2018-04-13T17:23:04.639Z,99.99
2018-04-13T17:24:56.898Z,99.58
2018-04-13T17:25:56.628Z,99.40
2018-04-13T17:27:48.419Z,99.99
2018-04-13T17:28:48.356Z,97.57
2018-04-13T17:30:40.152Z,99.99
2018-04-13T17:31:40.059Z,91.38
2018-04-13T17:33:31.888Z,94.35
2018-04-13T17:34:31.812Z,95.98
2018-04-13T17:36:23.619Z,89.84
2018-04-13T17:37:23.532Z,90.70
2018-04-13T17:39:15.441Z,87.54
2018-04-13T17:40:15.255Z,86.38
2018-04-13T17:42:07.056Z,91.57
2018-04-13T17:43:06.979Z,93.49
2018-04-13T17:44:58.869Z,84.95
2018-04-13T17:45:58.720Z,88.79
2018-04-13T17:47:50.490Z,82.64
2018-04-13T17:48:50.432Z,92.91
2018-04-13T17:50:42.249Z,88.59
2018-04-13T17:51:42.146Z,86.00
2018-04-13T17:53:34.064Z,85.24
2018-04-13T17:54:33.893Z,83.03
2018-04-13T17:56:25.674Z,84.91
2018-04-13T17:57:25.608Z,77.46
2018-04-13T17:59:17.426Z,81.01
2018-04-13T18:00:17.329Z,78.86
2018-04-13T18:02:09.159Z,79.67
2018-04-13T18:03:09.033Z,80.34
2018-04-13T18:05:00.891Z,78.47
2018-04-13T18:06:00.833Z,77.23
2018-04-13T18:07:52.600Z,75.12
2018-04-13T18:08:52.517Z,73.58
2018-04-13T18:10:44.325Z,71.47
2018-04-13T18:11:44.246Z,72.05
2018-04-13T18:13:36.034Z,67.06
2018-04-13T18:14:35.978Z,68.12
2018-04-13T18:16:27.767Z,62.07
2018-04-13T18:17:27.689Z,62.84
2018-04-13T18:19:19.476Z,64.37
2018-04-13T18:20:19.409Z,61.02
2018-04-13T18:22:11.206Z,23.97
2018-04-13T18:23:11.119Z,14.85
2018-04-13T18:25:03.913Z,0.57
2018-04-13T18:26:03.835Z,0.00
2018-04-13T18:27:55.724Z,0.00
2018-04-13T18:28:55.668Z,0.00
2018-04-13T18:30:48.479Z,0.00
2018-04-13T18:31:48.408Z,0.00
2018-04-13T18:33:41.307Z,0.00